NCAR-RAP Real-Time Weather Data

Output produced by METARs form (27 February 2015  16:49 UTC)
found at http://weather.rap.ucar.edu/surface/
 
Conditions at: KALB observed 27 February 2015  15:51 UTC
Temperature: -8.9°C (16°F)
Dewpoint: -20.0°C (-4°F) [RH = 40%]
Pressure (altimeter): 30.42 inches Hg (1030.2 mb)
[Sea-level pressure: 1030.7 mb]
Winds: from the NNW (330 degrees) at 9 MPH (8 knots; 4.2 m/s)
Visibility: 10 or more miles (16+ km)
Ceiling: at least 12,000 feet AGL
Clouds: sky clear below 12,000 feet AGL
Present Weather: no significant weather observed at this time
KALB 271551Z 33008KT 10SM CLR M09/M20 A3042 RMK AO2 SLP307 T10891200

Conditions at: KALB observed 27 February 2015  14:51 UTC
Temperature: -10.6°C (13°F)
Dewpoint: -21.1°C (-6°F) [RH = 42%]
Pressure (altimeter): 30.42 inches Hg (1030.2 mb)
[Sea-level pressure: 1030.9 mb]
Winds: from the NW (310 degrees) at 8 MPH (7 knots; 3.6 m/s)
Visibility: 10 or more miles (16+ km)
Ceiling: at least 12,000 feet AGL
Clouds: sky clear below 12,000 feet AGL
Present Weather: no significant weather observed at this time
KALB 271451Z 31007KT 10SM CLR M11/M21 A3042 RMK AO2 SLP309 T11061211 51023

Conditions at: KALB observed 27 February 2015  13:51 UTC
Temperature: -11.7°C (11°F)
Dewpoint: -19.4°C (-3°F) [RH = 53%]
Pressure (altimeter): 30.41 inches Hg (1029.9 mb)
[Sea-level pressure: 1030.4 mb]
Winds: from the NNW (340 degrees) at 9 MPH (8 knots; 4.2 m/s)
Visibility: 10 or more miles (16+ km)
Ceiling: at least 12,000 feet AGL
Clouds: sky clear below 12,000 feet AGL
Present Weather: no significant weather observed at this time
KALB 271351Z 34008KT 10SM CLR M12/M19 A3041 RMK AO2 SLP304 T11171194

Conditions at: KALB observed 27 February 2015  12:51 UTC
Temperature: -13.9°C (7°F)
Dewpoint: -20.0°C (-4°F) [RH = 60%]
Pressure (altimeter): 30.39 inches Hg (1029.2 mb)
[Sea-level pressure: 1029.6 mb]
Winds: from the NNW (330 degrees) at 8 MPH (7 knots; 3.6 m/s)
Visibility: 10 or more miles (16+ km)
Ceiling: at least 12,000 feet AGL
Clouds: few clouds at 2000 feet AGL
Present Weather: no significant weather observed at this time
KALB 271251Z 33007KT 10SM FEW020 M14/M20 A3039 RMK AO2 SLP296 T11391200

Conditions at: KALB observed 27 February 2015  11:51 UTC
Temperature: -15.0°C (5°F)
Dewpoint: -20.6°C (-5°F) [RH = 62%]
Pressure (altimeter): 30.35 inches Hg (1027.9 mb)
[Sea-level pressure: 1028.5 mb]
Winds: from the NW (320 degrees) at 8 MPH (7 knots; 3.6 m/s)
Visibility: 10 or more miles (16+ km)
Ceiling: at least 12,000 feet AGL
Clouds: few clouds at 1800 feet AGL
few clouds at 2700 feet AGL
Present Weather: no significant weather observed at this time
KALB 271151Z 32007KT 10SM FEW018 FEW027 M15/M21 A3035 RMK AO2 SLP285 4/012 60000 T11501206 11122 21161 53025

Conditions at: KALB observed 27 February 2015  11:37 UTC
Temperature: -15.0°C (5°F)
Dewpoint: -20.6°C (-5°F) [RH = 62%]
Pressure (altimeter): 30.35 inches Hg (1027.9 mb)
Winds: from the NW (320 degrees) at 7 MPH (6 knots; 3.1 m/s)
Visibility: 10 or more miles (16+ km)
Ceiling: at least 12,000 feet AGL
Clouds: few clouds at 2000 feet AGL
scattered clouds at 2700 feet AGL
Present Weather: no significant weather observed at this time
KALB 271137Z 32006KT 10SM FEW020 SCT027 M15/M21 A3035 RMK AO2 T11501206

Conditions at: KALB observed 27 February 2015  10:51 UTC
Temperature: -14.4°C (6°F)
Dewpoint: -20.0°C (-4°F) [RH = 62%]
Pressure (altimeter): 30.33 inches Hg (1027.2 mb)
[Sea-level pressure: 1027.6 mb]
Winds: from the N (350 degrees) at 7 MPH (6 knots; 3.1 m/s)
Visibility: 10 or more miles (16+ km)
Ceiling: 2600 feet AGL
Clouds: broken clouds at 2600 feet AGL
broken clouds at 11000 feet AGL
Present Weather: no significant weather observed at this time
KALB 271051Z 35006KT 10SM BKN026 BKN110 M14/M20 A3033 RMK AO2 SLP276 T11441200

Conditions at: KALB observed 27 February 2015  09:51 UTC
Temperature: -15.0°C (5°F)
Dewpoint: -20.6°C (-5°F) [RH = 62%]
Pressure (altimeter): 30.30 inches Hg (1026.2 mb)
[Sea-level pressure: 1026.5 mb]
Winds: from the N (10 degrees) at 3 MPH (3 knots; 1.6 m/s)
Visibility: 10 or more miles (16+ km)
Ceiling: at least 12,000 feet AGL
Clouds: few clouds at 2300 feet AGL
scattered clouds at 11000 feet AGL
Present Weather: no significant weather observed at this time
KALB 270951Z 01003KT 10SM FEW023 SCT110 M15/M21 A3030 RMK AO2 SNE00 SLP265 P0000 T11501206

Conditions at: KALB observed 27 February 2015  09:36 UTC
Temperature: -13.9°C (7°F)
Dewpoint: -20.0°C (-4°F) [RH = 60%]
Pressure (altimeter): 30.30 inches Hg (1026.2 mb)
Winds: from the N (360 degrees) at 3 MPH (3 knots; 1.6 m/s)
Visibility: 10 or more miles (16+ km)
Ceiling: 11000 feet AGL
Clouds: scattered clouds at 2300 feet AGL
broken clouds at 11000 feet AGL
Present Weather: no significant weather observed at this time
KALB 270936Z 36003KT 10SM SCT023 BKN110 M14/M20 A3030 RMK AO2 SNE00 P0000 T11391200

Conditions at: KALB observed 27 February 2015  08:51 UTC
Temperature: -13.3°C (8°F)
Dewpoint: -20.0°C (-4°F) [RH = 57%]
Pressure (altimeter): 30.28 inches Hg (1025.5 mb)
[Sea-level pressure: 1025.9 mb]
Winds: from the N (360 degrees) at 3 MPH (3 knots; 1.6 m/s)
Visibility: 10 or more miles (16+ km)
Ceiling: 2200 feet AGL
Clouds: broken clouds at 2200 feet AGL
overcast cloud deck at 11000 feet AGL
Present Weather: -SN  (light snow)
KALB 270851Z 36003KT 10SM -SN BKN022 OVC110 M13/M20 A3028 RMK AO2 SNB49 SLP259 PCPN VRY LGT P0000 60000 T11331200 53026

Conditions at: KALB observed 27 February 2015  08:16 UTC
Temperature: -13.3°C (8°F)
Dewpoint: -20.6°C (-5°F) [RH = 54%]
Pressure (altimeter): 30.26 inches Hg (1024.8 mb)
Winds: from the NNE (20 degrees) at 3 MPH (3 knots; 1.6 m/s)
Visibility: 10 or more miles (16+ km)
Ceiling: at least 12,000 feet AGL
Clouds: scattered clouds at 2200 feet AGL
scattered clouds at 11000 feet AGL
Present Weather: no significant weather observed at this time
KALB 270816Z 02003KT 10SM SCT022 SCT110 M13/M21 A3026 RMK AO2 T11331206

Conditions at: KALB observed 27 February 2015  07:51 UTC
Temperature: -13.3°C (8°F)
Dewpoint: -20.6°C (-5°F) [RH = 54%]
Pressure (altimeter): 30.25 inches Hg (1024.5 mb)
[Sea-level pressure: 1024.7 mb]
Winds: from the N (10 degrees) at 6 MPH (5 knots; 2.6 m/s)
Visibility: 10 or more miles (16+ km)
Ceiling: 2300 feet AGL
Clouds: broken clouds at 2300 feet AGL
overcast cloud deck at 11000 feet AGL
Present Weather: no significant weather observed at this time
KALB 270751Z 01005KT 10SM BKN023 OVC110 M13/M21 A3025 RMK AO2 SLP247 T11331206

Conditions at: KALB observed 27 February 2015  06:51 UTC
Temperature: -12.8°C (9°F)
Dewpoint: -20.6°C (-5°F) [RH = 52%]
Pressure (altimeter): 30.23 inches Hg (1023.8 mb)
[Sea-level pressure: 1024.1 mb]
Winds: from the N (10 degrees) at 7 MPH (6 knots; 3.1 m/s)
Visibility: 10 or more miles (16+ km)
Ceiling: 2600 feet AGL
Clouds: broken clouds at 2600 feet AGL
overcast cloud deck at 11000 feet AGL
Present Weather: no significant weather observed at this time
KALB 270651Z 01006KT 10SM BKN026 OVC110 M13/M21 A3023 RMK AO2 SLP241 T11281206

Conditions at: KALB observed 27 February 2015  06:37 UTC
Temperature: -12.8°C (9°F)
Dewpoint: -20.6°C (-5°F) [RH = 52%]
Pressure (altimeter): 30.22 inches Hg (1023.5 mb)
Winds: from the N (350 degrees) at 6 MPH (5 knots; 2.6 m/s)
Visibility: 10 or more miles (16+ km)
Ceiling: 2600 feet AGL
Clouds: broken clouds at 2600 feet AGL
overcast cloud deck at 11000 feet AGL
Present Weather: no significant weather observed at this time
KALB 270637Z 35005KT 10SM BKN026 OVC110 M13/M21 A3022 RMK AO2 T11281206

Conditions at: KALB observed 27 February 2015  05:51 UTC
Temperature: -11.7°C (11°F)
Dewpoint: -21.1°C (-6°F) [RH = 46%]
Pressure (altimeter): 30.20 inches Hg (1022.8 mb)
[Sea-level pressure: 1023.2 mb]
Winds: from the N (360 degrees) at 8 MPH (7 knots; 3.6 m/s)
Visibility: 10 or more miles (16+ km)
Ceiling: 11000 feet AGL
Clouds: scattered clouds at 2500 feet AGL
scattered clouds at 3000 feet AGL
overcast cloud deck at 11000 feet AGL
Present Weather: no significant weather observed at this time
KALB 270551Z 36007KT 10SM SCT025 SCT030 OVC110 M12/M21 A3020 RMK AO2 SLP232 4/012 60000 T11171211 11083 21122 51015

Conditions at: KALB observed 27 February 2015  04:51 UTC
Temperature: -11.7°C (11°F)
Dewpoint: -18.9°C (-2°F) [RH = 55%]
Pressure (altimeter): 30.20 inches Hg (1022.8 mb)
[Sea-level pressure: 1023.2 mb]
Winds: from the N (360 degrees) at 8 MPH (7 knots; 3.6 m/s)
Visibility: 10 or more miles (16+ km)
Ceiling: 2600 feet AGL
Clouds: broken clouds at 2600 feet AGL
overcast cloud deck at 11000 feet AGL
Present Weather: no significant weather observed at this time
KALB 270451Z 36007KT 10SM BKN026 OVC110 M12/M19 A3020 RMK AO2 SNE0355 SLP232 P0000 T11171189 410671117